Time;durP1;ratioP1;P1;durP2;ratioP2;P2;SDS_P1;SDS_P2;PMS_P1;PMS_P2;Temp;Humidity;BMP_temperature;BMP_pressure;BME280_temperature;BME280_humidity;BME280_pressure;Samples;Min_cycle;Max_cycle;Signal;HPM_P1;HPM_P2
2022/11/15 00:02:39;;;;;;;5.43;3.67;;;;;;;;;;8360440;28;20032;-64
2022/11/15 00:06:40;;;;;;;6.05;3.78;;;;;;;;;;8359841;28;20035;-63
2022/11/15 00:10:41;;;;;;;10.60;3.22;;;;;;;;;;8362133;28;20024;-64
2022/11/15 00:14:41;;;;;;;5.78;3.22;;;;;;;;;;8362665;28;20645;-64
2022/11/15 00:23:58;;;;;;;6.15;3.63;;;;;;;;;;8378485;28;20242;-62
2022/11/15 00:27:59;;;;;;;6.03;3.42;;;;;;;;;;8341199;28;20036;-61
2022/11/15 00:31:59;;;;;;;4.07;2.88;;;;;;;;;;8358571;28;20106;-61
2022/11/15 00:36:01;;;;;;;5.47;3.58;;;;;;;;;;8355313;28;20029;-61
2022/11/15 00:40:01;;;;;;;6.38;3.08;;;;;;;;;;8360106;28;20028;-63
2022/11/15 00:44:01;;;;;;;4.77;3.20;;;;;;;;;;8359679;28;20872;-63
2022/11/15 00:48:01;;;;;;;6.32;3.40;;;;;;;;;;8359378;28;20936;-62
2022/11/15 00:52:02;;;;;;;6.13;3.38;;;;;;;;;;8360951;28;20028;-63
2022/11/15 00:56:02;;;;;;;6.45;3.08;;;;;;;;;;8359116;28;20163;-63
2022/11/15 01:00:02;;;;;;;4.80;3.33;;;;;;;;;;8357605;28;20029;-63
2022/11/15 01:04:03;;;;;;;3.22;2.92;;;;;;;;;;8360158;28;20278;-63
2022/11/15 01:08:03;;;;;;;3.95;3.00;;;;;;;;;;8361380;28;20020;-63
2022/11/15 01:12:03;;;;;;;3.07;2.73;;;;;;;;;;8360873;28;20035;-63
2022/11/15 01:16:11;;;;;;;6.57;2.92;;;;;;;;;;8361018;28;21020;-62
2022/11/15 01:20:11;;;;;;;4.18;3.17;;;;;;;;;;8359206;28;20016;-63
2022/11/15 01:24:12;;;;;;;3.88;2.80;;;;;;;;;;8362098;28;20024;-63
2022/11/15 01:28:13;;;;;;;4.22;2.78;;;;;;;;;;8357066;28;20128;-63
2022/11/15 01:32:13;;;;;;;4.55;2.70;;;;;;;;;;8357598;28;20074;-63
2022/11/15 01:36:18;;;;;;;3.88;2.60;;;;;;;;;;8357086;28;20027;-63
2022/11/15 01:40:18;;;;;;;3.03;2.72;;;;;;;;;;8360209;28;20044;-63
2022/11/15 01:44:30;;;;;;;4.40;2.35;;;;;;;;;;8358146;28;20075;-63
2022/11/15 01:48:33;;;;;;;6.40;2.70;;;;;;;;;;8358573;28;20033;-63
2022/11/15 01:52:34;;;;;;;2.42;2.20;;;;;;;;;;8360086;28;20036;-63
2022/11/15 01:56:37;;;;;;;3.15;2.45;;;;;;;;;;8360066;28;20685;-64
2022/11/15 02:00:37;;;;;;;3.47;2.38;;;;;;;;;;8358453;28;20040;-63
2022/11/15 02:04:40;;;;;;;3.28;2.42;;;;;;;;;;8359574;28;20103;-63
2022/11/15 02:08:41;;;;;;;2.58;2.38;;;;;;;;;;8359845;28;20015;-63
2022/11/15 02:12:41;;;;;;;3.70;2.20;;;;;;;;;;8360078;28;20134;-63
2022/11/15 02:16:54;;;;;;;2.60;2.30;;;;;;;;;;8358677;28;20151;-63
2022/11/15 02:21:13;;;;;;;2.90;2.30;;;;;;;;;;8359689;28;20025;-63
2022/11/15 02:25:32;;;;;;;3.22;2.05;;;;;;;;;;8359514;28;20577;-63
2022/11/15 02:29:39;;;;;;;3.13;2.42;;;;;;;;;;8330171;28;22017;-63
2022/11/15 02:34:01;;;;;;;2.65;2.30;;;;;;;;;;8358773;28;20051;-63
2022/11/15 02:38:22;;;;;;;2.33;2.10;;;;;;;;;;8358115;28;20099;-62
2022/11/15 02:51:09;;;;;;;3.60;2.25;;;;;;;;;;8356883;28;20042;-64
2022/11/15 02:55:29;;;;;;;3.03;2.40;;;;;;;;;;8356832;28;20048;-63
2022/11/15 02:59:35;;;;;;;2.28;2.00;;;;;;;;;;8357935;28;20031;-63
2022/11/15 03:03:38;;;;;;;2.95;2.30;;;;;;;;;;8355900;28;20050;-64
2022/11/15 03:07:41;;;;;;;3.83;2.23;;;;;;;;;;8357002;28;20025;-62
2022/11/15 03:11:45;;;;;;;2.78;2.22;;;;;;;;;;8355471;28;20027;-63
2022/11/15 03:15:45;;;;;;;;;;;;;;;;;;8359158;28;20070;-63
2022/11/15 03:19:51;;;;;;;3.05;2.05;;;;;;;;;;8339308;28;19999;-63
2022/11/15 03:23:52;;;;;;;2.55;2.28;;;;;;;;;;8357236;28;20098;-63
2022/11/15 03:27:55;;;;;;;2.60;1.90;;;;;;;;;;8357753;28;20033;-63
2022/11/15 03:31:58;;;;;;;2.45;2.08;;;;;;;;;;8353770;28;20032;-62
2022/11/15 03:35:58;;;;;;;2.67;2.03;;;;;;;;;;8357246;28;20032;-63
2022/11/15 03:39:59;;;;;;;2.80;2.28;;;;;;;;;;8359470;28;20024;-63
2022/11/15 03:44:11;;;;;;;2.97;2.33;;;;;;;;;;8356195;28;20207;-63
2022/11/15 03:48:18;;;;;;;3.50;2.50;;;;;;;;;;8355539;28;20111;-62
2022/11/15 03:52:19;;;;;;;2.47;2.08;;;;;;;;;;8355062;28;20504;-63
2022/11/15 03:56:19;;;;;;;2.80;2.40;;;;;;;;;;8355070;28;20385;-63
2022/11/15 04:00:19;;;;;;;4.05;2.10;;;;;;;;;;8356798;28;20063;-63
2022/11/15 04:04:19;;;;;;;2.43;2.20;;;;;;;;;;8358280;28;20164;-63
2022/11/15 04:08:20;;;;;;;2.30;2.10;;;;;;;;;;8361424;28;20393;-62
2022/11/15 04:12:30;;;;;;;2.92;2.10;;;;;;;;;;8363167;28;20506;-62
2022/11/15 04:16:30;;;;;;;3.28;2.47;;;;;;;;;;8360920;28;20051;-62
2022/11/15 04:24:49;;;;;;;5.20;2.30;;;;;;;;;;8358969;28;20039;-63
2022/11/15 04:33:08;;;;;;;2.80;2.38;;;;;;;;;;8359876;28;20122;-63
2022/11/15 04:37:11;;;;;;;3.00;2.30;;;;;;;;;;8361700;28;20021;-63
2022/11/15 04:41:12;;;;;;;5.00;2.33;;;;;;;;;;8361004;28;20365;-63
2022/11/15 04:45:12;;;;;;;4.10;2.50;;;;;;;;;;8359024;28;20036;-63
2022/11/15 04:49:12;;;;;;;2.30;2.10;;;;;;;;;;8358624;28;20021;-63
2022/11/15 04:53:12;;;;;;;3.20;2.53;;;;;;;;;;8359020;28;20056;-63
2022/11/15 04:57:13;;;;;;;3.10;2.50;;;;;;;;;;8360227;28;20158;-64
2022/11/15 05:01:14;;;;;;;2.85;2.40;;;;;;;;;;8358554;28;20035;-63
2022/11/15 05:05:14;;;;;;;4.32;3.30;;;;;;;;;;8357730;28;20114;-63
2022/11/15 05:09:15;;;;;;;6.55;3.80;;;;;;;;;;8359453;28;20425;-63
2022/11/15 05:13:16;;;;;;;6.68;4.45;;;;;;;;;;8340993;28;20094;-63
2022/11/15 05:17:16;;;;;;;5.18;3.65;;;;;;;;;;8357401;28;20039;-63
2022/11/15 05:21:17;;;;;;;3.95;2.80;;;;;;;;;;8358863;28;20021;-63
2022/11/15 05:25:18;;;;;;;6.18;3.17;;;;;;;;;;8358322;28;20029;-63
2022/11/15 05:29:18;;;;;;;4.38;2.70;;;;;;;;;;8359584;28;20023;-63
2022/11/15 05:33:18;;;;;;;3.35;2.53;;;;;;;;;;8356685;28;20032;-63
2022/11/15 05:37:18;;;;;;;4.03;2.55;;;;;;;;;;8357215;28;20079;-63
2022/11/15 05:41:20;;;;;;;3.03;2.58;;;;;;;;;;8357403;28;20474;-63
2022/11/15 05:45:21;;;;;;;3.75;2.63;;;;;;;;;;8358024;28;20032;-63
2022/11/15 05:49:23;;;;;;;2.65;2.20;;;;;;;;;;8355652;28;20778;-63
2022/11/15 05:53:24;;;;;;;2.22;2.03;;;;;;;;;;8357065;28;20026;-64
2022/11/15 05:57:25;;;;;;;2.38;2.17;;;;;;;;;;8358250;28;20123;-63
2022/11/15 06:01:25;;;;;;;2.33;2.13;;;;;;;;;;8359160;28;20557;-63
2022/11/15 06:05:26;;;;;;;2.50;2.30;;;;;;;;;;8358610;28;20044;-63
2022/11/15 06:09:26;;;;;;;3.03;2.50;;;;;;;;;;8359202;28;21040;-63
2022/11/15 06:13:26;;;;;;;2.72;2.53;;;;;;;;;;8358000;28;20028;-63
2022/11/15 06:17:26;;;;;;;3.20;2.78;;;;;;;;;;8358496;28;20495;-62
2022/11/15 06:21:27;;;;;;;4.15;2.80;;;;;;;;;;8356245;28;20789;-63
2022/11/15 06:25:28;;;;;;;3.28;2.63;;;;;;;;;;8360042;28;20123;-63
2022/11/15 06:29:28;;;;;;;2.20;1.90;;;;;;;;;;8354241;28;20059;-64
2022/11/15 06:33:28;;;;;;;2.40;2.20;;;;;;;;;;8357760;28;20048;-62
2022/11/15 06:37:28;;;;;;;1.77;1.67;;;;;;;;;;8358791;28;20075;-63
2022/11/15 06:41:29;;;;;;;2.47;1.88;;;;;;;;;;8359102;28;20024;-63
2022/11/15 06:45:29;;;;;;;2.00;1.80;;;;;;;;;;8356874;28;20523;-63
2022/11/15 06:49:29;;;;;;;2.10;1.70;;;;;;;;;;8355810;28;20270;-62
2022/11/15 06:53:30;;;;;;;1.75;1.65;;;;;;;;;;8358972;28;20028;-62
2022/11/15 06:57:32;;;;;;;1.70;1.60;;;;;;;;;;8356221;28;20070;-67
2022/11/15 07:01:32;;;;;;;2.28;1.70;;;;;;;;;;8356909;28;20870;-63
2022/11/15 07:05:32;;;;;;;2.03;1.70;;;;;;;;;;8356431;28;20642;-63
2022/11/15 07:09:32;;;;;;;4.10;1.60;;;;;;;;;;8359221;28;20275;-63
2022/11/15 07:13:33;;;;;;;1.80;1.70;;;;;;;;;;8346513;28;21496;-62
2022/11/15 07:17:33;;;;;;;2.80;1.42;;;;;;;;;;8347404;28;20119;-62
2022/11/15 07:21:34;;;;;;;3.38;1.98;;;;;;;;;;8349211;28;20180;-62
2022/11/15 07:25:34;;;;;;;2.65;1.98;;;;;;;;;;8347779;28;20580;-62
2022/11/15 07:29:34;;;;;;;4.63;2.70;;;;;;;;;;8349496;28;20029;-63
2022/11/15 07:33:34;;;;;;;3.05;2.70;;;;;;;;;;8327273;28;20025;-63
2022/11/15 07:37:35;;;;;;;3.08;2.30;;;;;;;;;;8348510;28;20152;-63
2022/11/15 07:41:35;;;;;;;4.05;2.17;;;;;;;;;;8353526;28;20445;-63
2022/11/15 07:45:39;;;;;;;2.50;2.03;;;;;;;;;;8354352;28;20574;-63
2022/11/15 07:49:39;;;;;;;2.45;2.08;;;;;;;;;;8352252;28;20696;-63
2022/11/15 07:53:40;;;;;;;2.63;1.80;;;;;;;;;;8353445;28;20390;-63
2022/11/15 07:57:40;;;;;;;2.55;2.08;;;;;;;;;;8349400;28;20558;-63
2022/11/15 08:01:40;;;;;;;1.70;1.60;;;;;;;;;;8352565;28;20036;-63
2022/11/15 08:05:41;;;;;;;1.75;1.50;;;;;;;;;;8350112;28;20473;-63
2022/11/15 08:09:41;;;;;;;4.78;1.77;;;;;;;;;;8348949;28;20060;-63
2022/11/15 08:13:41;;;;;;;3.03;1.73;;;;;;;;;;8349769;28;20456;-63
2022/11/15 08:17:42;;;;;;;2.65;2.13;;;;;;;;;;8349945;28;20591;-63
2022/11/15 08:21:42;;;;;;;2.28;2.08;;;;;;;;;;8350840;28;20143;-63
2022/11/15 08:25:42;;;;;;;2.13;1.80;;;;;;;;;;8349575;28;20524;-63
2022/11/15 08:29:47;;;;;;;1.90;1.60;;;;;;;;;;8330887;28;20032;-63
2022/11/15 08:33:47;;;;;;;1.52;1.40;;;;;;;;;;8348653;28;20040;-63
2022/11/15 08:37:47;;;;;;;1.75;1.65;;;;;;;;;;8351594;28;20066;-66
2022/11/15 08:41:47;;;;;;;1.60;1.50;;;;;;;;;;8350256;28;20020;-63
2022/11/15 08:45:47;;;;;;;3.72;1.77;;;;;;;;;;8329249;28;20410;-63
2022/11/15 08:49:48;;;;;;;2.72;2.10;;;;;;;;;;8349903;28;20107;-63
2022/11/15 08:53:48;;;;;;;3.10;2.38;;;;;;;;;;8350596;28;20095;-63
2022/11/15 08:57:48;;;;;;;2.20;2.00;;;;;;;;;;8348677;28;20610;-63
2022/11/15 09:01:51;;;;;;;3.45;2.58;;;;;;;;;;8351181;28;20877;-64
2022/11/15 09:05:55;;;;;;;4.05;2.90;;;;;;;;;;8350059;28;20027;-63
2022/11/15 09:09:55;;;;;;;4.03;2.67;;;;;;;;;;8351512;28;20082;-63
2022/11/15 09:13:55;;;;;;;4.20;2.40;;;;;;;;;;8351432;28;20023;-63
2022/11/15 09:17:59;;;;;;;3.70;2.35;;;;;;;;;;8347801;28;20154;-63
2022/11/15 09:21:59;;;;;;;3.95;3.03;;;;;;;;;;8351767;28;20496;-63
2022/11/15 09:26:00;;;;;;;3.28;2.90;;;;;;;;;;8350911;28;20020;-64
2022/11/15 09:30:01;;;;;;;3.25;2.75;;;;;;;;;;8351212;28;20026;-64
2022/11/15 09:34:01;;;;;;;4.03;2.85;;;;;;;;;;8349449;28;20324;-63
2022/11/15 09:38:01;;;;;;;3.83;2.92;;;;;;;;;;8350842;28;20024;-63
2022/11/15 09:42:08;;;;;;;4.03;2.78;;;;;;;;;;8351322;28;20024;-63
2022/11/15 09:46:08;;;;;;;3.83;2.97;;;;;;;;;;8349686;28;20090;-63
2022/11/15 09:50:11;;;;;;;6.03;3.65;;;;;;;;;;8348859;28;20024;-62
2022/11/15 09:54:16;;;;;;;5.65;3.92;;;;;;;;;;8350364;28;20020;-63
2022/11/15 09:58:31;;;;;;;5.20;3.92;;;;;;;;;;8350291;28;20726;-63
2022/11/15 10:02:50;;;;;;;4.50;3.25;;;;;;;;;;8350752;28;20043;-62
2022/11/15 10:07:06;;;;;;;6.65;4.00;;;;;;;;;;8350806;28;20259;-63
2022/11/15 10:11:07;;;;;;;4.53;4.00;;;;;;;;;;8349711;28;20044;-62
2022/11/15 10:15:15;;;;;;;5.35;3.60;;;;;;;;;;8346789;28;20024;-63
2022/11/15 10:19:41;;;;;;;4.90;3.83;;;;;;;;;;8351879;28;20535;-62
2022/11/15 10:23:42;;;;;;;4.28;3.30;;;;;;;;;;8325767;28;20040;-62
2022/11/15 10:27:44;;;;;;;4.05;3.17;;;;;;;;;;8351519;28;20846;-64
2022/11/15 10:31:44;;;;;;;4.57;3.05;;;;;;;;;;8346832;28;20698;-63
2022/11/15 10:35:44;;;;;;;4.28;2.47;;;;;;;;;;8349366;28;20060;-62
2022/11/15 10:40:01;;;;;;;3.07;2.60;;;;;;;;;;8349224;28;20443;-63
2022/11/15 10:44:01;;;;;;;2.88;2.65;;;;;;;;;;8347282;28;20290;-63
2022/11/15 10:48:13;;;;;;;3.05;2.35;;;;;;;;;;8330882;28;20123;-63
2022/11/15 10:52:16;;;;;;;6.93;4.03;;;;;;;;;;8349683;28;20519;-64
2022/11/15 10:56:20;;;;;;;5.65;5.07;;;;;;;;;;8347150;28;20143;-64
2022/11/15 11:00:21;;;;;;;7.65;5.68;;;;;;;;;;8348217;28;20028;-65
2022/11/15 11:04:21;;;;;;;13.60;6.68;;;;;;;;;;8346266;28;20025;-64
2022/11/15 11:08:23;;;;;;;12.40;7.35;;;;;;;;;;8350030;28;20012;-63
2022/11/15 11:12:31;;;;;;;8.70;6.70;;;;;;;;;;8347899;28;20050;-64
2022/11/15 11:17:00;;;;;;;6.88;5.85;;;;;;;;;;8344574;28;20386;-64
2022/11/15 11:21:08;;;;;;;7.97;5.82;;;;;;;;;;8337573;28;20033;-64
2022/11/15 11:25:18;;;;;;;9.82;7.18;;;;;;;;;;8362272;28;20024;-64
2022/11/15 11:29:22;;;;;;;7.43;4.97;;;;;;;;;;8353708;28;20470;-64
2022/11/15 11:33:27;;;;;;;8.02;6.10;;;;;;;;;;8352953;28;21120;-64
2022/11/15 11:37:37;;;;;;;7.80;5.45;;;;;;;;;;8354923;28;20027;-64
2022/11/15 11:41:44;;;;;;;5.03;4.28;;;;;;;;;;8353852;28;20017;-64
2022/11/15 11:45:51;;;;;;;4.78;4.28;;;;;;;;;;8353519;28;20044;-64
2022/11/15 11:50:00;;;;;;;5.03;3.97;;;;;;;;;;8352211;28;20035;-64
2022/11/15 11:54:05;;;;;;;4.90;4.20;;;;;;;;;;8351253;28;20063;-65
2022/11/15 11:58:21;;;;;;;5.38;4.53;;;;;;;;;;8353007;28;20020;-63
2022/11/15 12:02:28;;;;;;;4.40;3.65;;;;;;;;;;8354349;28;20044;-63
2022/11/15 12:06:37;;;;;;;11.65;5.78;;;;;;;;;;8348722;28;20039;-62
2022/11/15 12:10:38;;;;;;;6.18;4.78;;;;;;;;;;8352727;28;20031;-63
2022/11/15 12:14:42;;;;;;;5.97;4.80;;;;;;;;;;8351318;28;20028;-62
2022/11/15 12:18:50;;;;;;;6.50;5.20;;;;;;;;;;8350166;28;20041;-64
2022/11/15 12:22:53;;;;;;;7.50;5.00;;;;;;;;;;8348729;28;21640;-64
2022/11/15 12:26:53;;;;;;;5.68;4.55;;;;;;;;;;8349345;28;20020;-64
2022/11/15 12:30:53;;;;;;;4.22;3.60;;;;;;;;;;8352679;28;20109;-64
2022/11/15 12:34:54;;;;;;;8.85;5.00;;;;;;;;;;8352607;28;20021;-64
2022/11/15 12:39:03;;;;;;;6.45;4.65;;;;;;;;;;8334526;28;20587;-64
2022/11/15 12:43:03;;;;;;;6.03;4.80;;;;;;;;;;8350289;28;20020;-64
2022/11/15 12:47:04;;;;;;;6.75;5.20;;;;;;;;;;8351597;28;20515;-64
2022/11/15 12:51:04;;;;;;;7.82;5.45;;;;;;;;;;8349679;28;20028;-64
2022/11/15 12:55:24;;;;;;;6.82;5.32;;;;;;;;;;8350574;28;20234;-63
2022/11/15 12:59:43;;;;;;;8.32;5.63;;;;;;;;;;8350589;28;20054;-63
2022/11/15 13:04:10;;;;;;;7.63;5.72;;;;;;;;;;8350495;28;20124;-64
2022/11/15 13:08:30;;;;;;;7.30;5.88;;;;;;;;;;8314310;28;20507;-64
2022/11/15 13:12:30;;;;;;;7.00;5.40;;;;;;;;;;8344142;28;20025;-64
2022/11/15 13:16:31;;;;;;;10.20;5.90;;;;;;;;;;8348568;28;20037;-64
2022/11/15 13:20:32;;;;;;;7.38;5.50;;;;;;;;;;8346139;28;20081;-63
2022/11/15 13:24:32;;;;;;;6.75;5.55;;;;;;;;;;8350475;28;20331;-64
2022/11/15 13:28:45;;;;;;;6.43;5.07;;;;;;;;;;8348421;28;20024;-63
2022/11/15 13:32:46;;;;;;;9.60;5.75;;;;;;;;;;8349279;28;20514;-63
2022/11/15 13:36:46;;;;;;;7.88;5.25;;;;;;;;;;8349147;28;20381;-63
2022/11/15 13:40:46;;;;;;;8.17;5.60;;;;;;;;;;8348630;28;20195;-63
2022/11/15 13:44:57;;;;;;;6.93;5.80;;;;;;;;;;8347673;28;20560;-63
2022/11/15 13:48:59;;;;;;;7.90;5.82;;;;;;;;;;8348710;28;20118;-63
2022/11/15 13:53:01;;;;;;;8.35;5.07;;;;;;;;;;8347132;28;20512;-63
2022/11/15 13:57:13;;;;;;;11.40;5.60;;;;;;;;;;8348576;28;20023;-63
2022/11/15 14:01:15;;;;;;;7.95;5.80;;;;;;;;;;8345874;28;20607;-63
2022/11/15 14:05:17;;;;;;;7.90;5.40;;;;;;;;;;8345476;28;20047;-64
2022/11/15 14:09:29;;;;;;;9.05;6.03;;;;;;;;;;8350259;28;20098;-64
2022/11/15 14:13:30;;;;;;;13.07;8.13;;;;;;;;;;8343565;28;20186;-64
2022/11/15 14:17:30;;;;;;;8.90;7.47;;;;;;;;;;8342255;28;20061;-63
2022/11/15 14:21:31;;;;;;;6.20;5.35;;;;;;;;;;8341909;28;20024;-64
2022/11/15 14:25:32;;;;;;;5.95;5.10;;;;;;;;;;8344390;28;20028;-63
2022/11/15 14:29:32;;;;;;;9.15;5.05;;;;;;;;;;8347790;28;20095;-64
2022/11/15 14:33:34;;;;;;;8.40;4.57;;;;;;;;;;8345459;28;20163;-63
2022/11/15 14:37:34;;;;;;;4.72;3.72;;;;;;;;;;8339875;28;20051;-63
2022/11/15 14:41:37;;;;;;;18.27;12.45;;;;;;;;;;8343342;28;20489;-63
2022/11/15 14:45:38;;;;;;;8.53;5.37;;;;;;;;;;8342155;28;20047;-63
2022/11/15 14:49:38;;;;;;;6.43;3.80;;;;;;;;;;8345404;28;20051;-64
2022/11/15 14:53:39;;;;;;;6.93;3.58;;;;;;;;;;8357941;28;20468;-64
2022/11/15 14:57:39;;;;;;;4.63;3.75;;;;;;;;;;8354009;28;20032;-64
2022/11/15 15:01:39;;;;;;;6.15;3.70;;;;;;;;;;8357879;28;20028;-64
2022/11/15 15:05:41;;;;;;;5.55;3.45;;;;;;;;;;8354412;28;20111;-64
2022/11/15 15:09:41;;;;;;;7.60;3.45;;;;;;;;;;8359081;28;20034;-64
2022/11/15 15:13:42;;;;;;;5.47;4.00;;;;;;;;;;8357217;28;20047;-64
2022/11/15 15:17:42;;;;;;;7.40;3.85;;;;;;;;;;8355698;28;20602;-64
2022/11/15 15:21:42;;;;;;;6.60;4.68;;;;;;;;;;8357573;28;20385;-63
2022/11/15 15:25:43;;;;;;;10.90;5.25;;;;;;;;;;8354894;28;20032;-63
2022/11/15 15:29:43;;;;;;;12.38;6.10;;;;;;;;;;8358797;28;20087;-63
2022/11/15 15:33:44;;;;;;;6.45;4.70;;;;;;;;;;8356052;28;20768;-63
2022/11/15 15:37:45;;;;;;;7.22;5.10;;;;;;;;;;8357774;28;20042;-63
2022/11/15 15:41:45;;;;;;;6.70;4.68;;;;;;;;;;8355291;28;20587;-63
2022/11/15 15:45:46;;;;;;;9.40;5.43;;;;;;;;;;8355076;28;20103;-63
2022/11/15 15:49:46;;;;;;;9.15;5.68;;;;;;;;;;8356052;28;20077;-63
2022/11/15 15:53:47;;;;;;;9.60;5.60;;;;;;;;;;8357895;28;20082;-64
2022/11/15 15:57:48;;;;;;;12.48;6.65;;;;;;;;;;8356394;28;20020;-63
2022/11/15 16:01:48;;;;;;;13.48;6.10;;;;;;;;;;8358503;28;20036;-63
2022/11/15 16:05:49;;;;;;;8.95;5.72;;;;;;;;;;8362157;28;21033;-63
2022/11/15 16:10:02;;;;;;;12.13;7.40;;;;;;;;;;8362562;28;20048;-63
2022/11/15 16:14:02;;;;;;;8.00;6.05;;;;;;;;;;8358160;28;20019;-64
2022/11/15 16:18:03;;;;;;;9.80;6.82;;;;;;;;;;8358763;28;20036;-64
2022/11/15 16:22:03;;;;;;;14.35;7.05;;;;;;;;;;8357608;28;20024;-63
2022/11/15 16:26:09;;;;;;;9.75;5.60;;;;;;;;;;8356552;28;20397;-63
2022/11/15 16:30:21;;;;;;;6.70;4.07;;;;;;;;;;8359370;28;20074;-67
2022/11/15 16:34:21;;;;;;;10.27;5.78;;;;;;;;;;8359730;28;20123;-63
2022/11/15 16:38:21;;;;;;;6.35;4.75;;;;;;;;;;8360088;28;20052;-64
2022/11/15 16:42:21;;;;;;;7.35;4.55;;;;;;;;;;8363290;28;20028;-63
2022/11/15 16:46:25;;;;;;;13.88;10.38;;;;;;;;;;8358604;28;20179;-63
2022/11/15 16:50:28;;;;;;;9.25;6.78;;;;;;;;;;8342122;28;20123;-65
2022/11/15 16:54:28;;;;;;;15.90;10.25;;;;;;;;;;8342066;28;20029;-64
2022/11/15 16:58:28;;;;;;;12.27;7.95;;;;;;;;;;8362577;28;20054;-64
2022/11/15 17:02:29;;;;;;;5.60;4.95;;;;;;;;;;8356364;28;20052;-64
2022/11/15 17:06:30;;;;;;;6.93;4.40;;;;;;;;;;8356319;28;20036;-64
2022/11/15 17:10:30;;;;;;;3.85;3.45;;;;;;;;;;8318354;28;20053;-65
2022/11/15 17:14:30;;;;;;;4.50;3.20;;;;;;;;;;8308688;28;20131;-64
2022/11/15 17:18:30;;;;;;;3.85;3.17;;;;;;;;;;8326405;28;20048;-64
2022/11/15 17:22:31;;;;;;;5.45;3.25;;;;;;;;;;8360451;28;20125;-64
2022/11/15 17:26:31;;;;;;;5.82;3.47;;;;;;;;;;8294856;28;20386;-64
2022/11/15 17:30:31;;;;;;;6.10;3.33;;;;;;;;;;8323522;28;21011;-64
2022/11/15 17:34:31;;;;;;;6.00;3.53;;;;;;;;;;8358853;28;20020;-63
2022/11/15 17:38:31;;;;;;;4.55;3.40;;;;;;;;;;8356282;28;20410;-64
2022/11/15 17:42:32;;;;;;;4.32;3.38;;;;;;;;;;8356614;28;20683;-64
2022/11/15 17:46:32;;;;;;;5.18;3.17;;;;;;;;;;8355051;28;20760;-64
2022/11/15 17:50:33;;;;;;;4.90;3.70;;;;;;;;;;8353447;28;20121;-64
2022/11/15 17:54:33;;;;;;;4.75;3.13;;;;;;;;;;8357070;28;20624;-64
2022/11/15 17:58:33;;;;;;;3.83;3.05;;;;;;;;;;8356365;28;20032;-64
2022/11/15 18:02:34;;;;;;;4.72;3.13;;;;;;;;;;8355756;28;20851;-63
2022/11/15 18:06:35;;;;;;;8.07;3.97;;;;;;;;;;8354657;28;20028;-65
2022/11/15 18:10:35;;;;;;;7.88;4.75;;;;;;;;;;8351998;28;20016;-64
2022/11/15 18:14:35;;;;;;;7.63;5.40;;;;;;;;;;8353783;28;20085;-64
2022/11/15 18:18:35;;;;;;;6.93;5.35;;;;;;;;;;8350940;28;20025;-63
2022/11/15 18:22:36;;;;;;;7.27;5.53;;;;;;;;;;8354243;28;20028;-63
2022/11/15 18:26:36;;;;;;;9.10;6.75;;;;;;;;;;8351287;28;20274;-64
2022/11/15 18:30:37;;;;;;;9.87;6.17;;;;;;;;;;8350829;28;20076;-64
2022/11/15 18:34:37;;;;;;;9.43;5.72;;;;;;;;;;8353251;28;20311;-63
2022/11/15 18:38:38;;;;;;;9.20;5.80;;;;;;;;;;8353882;28;20039;-63
2022/11/15 18:42:38;;;;;;;9.20;5.70;;;;;;;;;;8354139;28;20401;-63
2022/11/15 18:46:38;;;;;;;9.07;5.30;;;;;;;;;;8351283;28;20855;-71
2022/11/15 18:50:38;;;;;;;7.28;4.38;;;;;;;;;;8355551;28;20020;-64
2022/11/15 18:54:39;;;;;;;6.93;4.05;;;;;;;;;;8353791;28;20059;-64
2022/11/15 18:58:40;;;;;;;9.48;6.50;;;;;;;;;;8354909;28;20056;-63
2022/11/15 19:02:40;;;;;;;10.07;5.97;;;;;;;;;;8354828;28;20079;-64
2022/11/15 19:06:41;;;;;;;6.82;5.18;;;;;;;;;;8353462;28;20390;-63
2022/11/15 19:10:41;;;;;;;6.28;4.80;;;;;;;;;;8355311;28;20128;-63
2022/11/15 19:14:42;;;;;;;7.65;4.72;;;;;;;;;;8352608;28;20059;-65
2022/11/15 19:18:42;;;;;;;9.45;5.45;;;;;;;;;;8352462;28;20101;-65
2022/11/15 19:22:42;;;;;;;10.57;6.60;;;;;;;;;;8354104;28;20016;-63
2022/11/15 19:26:43;;;;;;;9.25;6.57;;;;;;;;;;8353002;28;20091;-63
2022/11/15 19:30:44;;;;;;;7.32;5.45;;;;;;;;;;8324777;28;20040;-63
2022/11/15 19:34:44;;;;;;;5.65;3.47;;;;;;;;;;8343401;28;20167;-63
2022/11/15 19:38:44;;;;;;;5.78;3.50;;;;;;;;;;8350283;28;20461;-63
2022/11/15 19:42:44;;;;;;;5.10;2.80;;;;;;;;;;8330250;28;20020;-63
2022/11/15 19:46:44;;;;;;;4.10;2.63;;;;;;;;;;8351040;28;20179;-63
2022/11/15 19:50:44;;;;;;;3.50;2.50;;;;;;;;;;8349575;28;20016;-63
2022/11/15 19:54:45;;;;;;;2.45;1.90;;;;;;;;;;8350069;28;20025;-63
2022/11/15 19:58:45;;;;;;;2.33;2.13;;;;;;;;;;8330703;28;20453;-63
2022/11/15 20:02:45;;;;;;;3.25;2.10;;;;;;;;;;8348348;28;20029;-63
2022/11/15 20:06:46;;;;;;;3.55;1.80;;;;;;;;;;8359290;28;20063;-63
2022/11/15 20:10:47;;;;;;;2.80;2.30;;;;;;;;;;8360276;28;20027;-68
2022/11/15 20:14:47;;;;;;;3.78;2.30;;;;;;;;;;8355227;28;20144;-63
2022/11/15 20:18:48;;;;;;;5.68;3.40;;;;;;;;;;8357100;28;20111;-63
2022/11/15 20:22:48;;;;;;;5.95;2.53;;;;;;;;;;8360320;28;20063;-63
2022/11/15 20:26:48;;;;;;;3.17;2.13;;;;;;;;;;8357909;28;20114;-63
2022/11/15 20:30:50;;;;;;;4.70;4.18;;;;;;;;;;8358979;28;20507;-63
2022/11/15 20:34:50;;;;;;;5.40;3.15;;;;;;;;;;8358516;28;20031;-63
2022/11/15 20:38:54;;;;;;;2.90;2.55;;;;;;;;;;8359549;28;20146;-63
2022/11/15 20:42:54;;;;;;;;;;;;;;;;;;8356220;28;20409;-63
2022/11/15 20:46:55;;;;;;;7.30;4.47;;;;;;;;;;8355091;28;19986;-63
2022/11/15 20:51:02;;;;;;;4.57;3.50;;;;;;;;;;8358886;28;20024;-64
2022/11/15 20:55:02;;;;;;;5.80;4.00;;;;;;;;;;8359084;28;20098;-63
2022/11/15 20:59:03;;;;;;;4.53;3.50;;;;;;;;;;8357762;28;20103;-63
2022/11/15 21:03:05;;;;;;;3.80;2.90;;;;;;;;;;8355193;28;20279;-64
2022/11/15 21:07:05;;;;;;;3.47;2.38;;;;;;;;;;8357689;28;20151;-63
2022/11/15 21:15:25;;;;;;;3.08;1.92;;;;;;;;;;8356005;28;20294;-63
2022/11/15 21:19:26;;;;;;;2.58;1.90;;;;;;;;;;8352474;28;20032;-63
2022/11/15 21:23:26;;;;;;;2.28;1.60;;;;;;;;;;8357264;28;20075;-64
2022/11/15 21:27:26;;;;;;;2.75;2.03;;;;;;;;;;8355572;28;20032;-64
2022/11/15 21:31:27;;;;;;;2.10;1.90;;;;;;;;;;8350385;28;20040;-64
2022/11/15 21:35:28;;;;;;;5.32;2.17;;;;;;;;;;8355569;28;20024;-63
2022/11/15 21:39:28;;;;;;;3.10;2.10;;;;;;;;;;8356183;28;20540;-63
2022/11/15 21:43:28;;;;;;;2.30;1.85;;;;;;;;;;8355879;28;20094;-63
2022/11/15 21:47:28;;;;;;;2.47;1.42;;;;;;;;;;8355390;28;20131;-64
2022/11/15 21:51:30;;;;;;;3.83;1.52;;;;;;;;;;8355778;28;20029;-65
2022/11/15 21:55:30;;;;;;;3.17;1.58;;;;;;;;;;8356391;28;20020;-62
2022/11/15 21:59:30;;;;;;;1.75;1.50;;;;;;;;;;8357068;28;20119;-63
2022/11/15 22:03:30;;;;;;;2.35;1.55;;;;;;;;;;8355703;28;20276;-63
2022/11/15 22:07:31;;;;;;;2.40;1.42;;;;;;;;;;8354997;28;20999;-63
2022/11/15 22:11:31;;;;;;;3.03;1.50;;;;;;;;;;8357077;28;20024;-63
2022/11/15 22:15:31;;;;;;;2.25;1.80;;;;;;;;;;8354794;28;20658;-63
2022/11/15 22:19:32;;;;;;;2.20;1.92;;;;;;;;;;8337651;28;20032;-64
2022/11/15 22:23:33;;;;;;;2.17;1.98;;;;;;;;;;8355836;28;20032;-64
2022/11/15 22:27:33;;;;;;;3.45;2.50;;;;;;;;;;8352386;28;20044;-63
2022/11/15 22:31:33;;;;;;;4.90;3.10;;;;;;;;;;8355923;28;20072;-63
2022/11/15 22:35:34;;;;;;;4.65;3.30;;;;;;;;;;8354429;28;20039;-63
2022/11/15 22:39:34;;;;;;;3.65;3.17;;;;;;;;;;8356830;28;20024;-63
2022/11/15 22:43:34;;;;;;;6.30;3.67;;;;;;;;;;8354595;28;20087;-63
2022/11/15 22:47:35;;;;;;;4.20;3.17;;;;;;;;;;8351968;28;20385;-64
2022/11/15 22:51:35;;;;;;;5.20;3.30;;;;;;;;;;8355099;28;20730;-64
2022/11/15 22:55:39;;;;;;;3.70;3.30;;;;;;;;;;8356333;28;20025;-64
2022/11/15 22:59:40;;;;;;;4.45;3.75;;;;;;;;;;8355992;28;21199;-63
2022/11/15 23:03:40;;;;;;;3.75;3.15;;;;;;;;;;8355325;28;20149;-63
2022/11/15 23:07:41;;;;;;;2.92;2.35;;;;;;;;;;8356948;28;20067;-63
2022/11/15 23:20:20;;;;;;;1.98;1.70;;;;;;;;;;8361527;28;20273;-63
2022/11/15 23:24:20;;;;;;;2.30;1.50;;;;;;;;;;8354742;28;20013;-63
2022/11/15 23:28:20;;;;;;;1.58;1.30;;;;;;;;;;8355665;28;20041;-63
2022/11/15 23:36:40;;;;;;;1.70;1.60;;;;;;;;;;8356466;28;20035;-63
2022/11/15 23:40:40;;;;;;;3.10;1.70;;;;;;;;;;8356180;28;20025;-63
2022/11/15 23:44:40;;;;;;;1.55;1.45;;;;;;;;;;8353991;28;20310;-63
2022/11/15 23:48:41;;;;;;;2.28;1.33;;;;;;;;;;8352386;28;20870;-63
2022/11/15 23:52:41;;;;;;;1.77;1.40;;;;;;;;;;8354358;28;20075;-63
2022/11/15 23:56:41;;;;;;;3.22;1.50;;;;;;;;;;8353404;28;20028;-63
